sensor_id;sensor_type;location;lat;lon;timestamp;P1;durP1;ratioP1;P2;durP2;ratioP2
23101;SDS011;11720;51.214;22.574;2023-04-07T00:00:39;25.00;;;8.93;;
23101;SDS011;11720;51.214;22.574;2023-04-07T00:03:05;20.40;;;8.20;;
23101;SDS011;11720;51.214;22.574;2023-04-07T00:05:32;17.87;;;8.27;;
23101;SDS011;11720;51.214;22.574;2023-04-07T00:07:58;13.47;;;7.57;;
23101;SDS011;11720;51.214;22.574;2023-04-07T00:10:25;15.50;;;8.90;;
23101;SDS011;11720;51.214;22.574;2023-04-07T00:12:51;25.80;;;9.77;;
23101;SDS011;11720;51.214;22.574;2023-04-07T00:15:21;22.57;;;9.17;;
23101;SDS011;11720;51.214;22.574;2023-04-07T00:17:47;25.17;;;9.90;;
23101;SDS011;11720;51.214;22.574;2023-04-07T00:20:13;12.70;;;7.87;;
23101;SDS011;11720;51.214;22.574;2023-04-07T00:22:39;24.60;;;9.40;;
23101;SDS011;11720;51.214;22.574;2023-04-07T00:25:06;19.17;;;8.10;;
23101;SDS011;11720;51.214;22.574;2023-04-07T00:27:32;14.07;;;7.17;;
23101;SDS011;11720;51.214;22.574;2023-04-07T00:29:58;15.93;;;8.60;;
23101;SDS011;11720;51.214;22.574;2023-04-07T00:32:24;19.03;;;8.60;;
23101;SDS011;11720;51.214;22.574;2023-04-07T00:34:50;16.67;;;7.10;;
23101;SDS011;11720;51.214;22.574;2023-04-07T00:37:16;35.57;;;10.03;;
23101;SDS011;11720;51.214;22.574;2023-04-07T00:39:43;21.90;;;9.67;;
23101;SDS011;11720;51.214;22.574;2023-04-07T00:42:09;18.20;;;8.03;;
23101;SDS011;11720;51.214;22.574;2023-04-07T00:44:35;19.30;;;9.57;;
23101;SDS011;11720;51.214;22.574;2023-04-07T00:47:01;21.77;;;10.53;;
23101;SDS011;11720;51.214;22.574;2023-04-07T00:49:27;16.00;;;8.33;;
23101;SDS011;11720;51.214;22.574;2023-04-07T00:51:54;23.50;;;8.70;;
23101;SDS011;11720;51.214;22.574;2023-04-07T00:54:20;22.73;;;9.23;;
23101;SDS011;11720;51.214;22.574;2023-04-07T00:56:47;16.23;;;9.70;;
23101;SDS011;11720;51.214;22.574;2023-04-07T00:59:13;25.73;;;8.57;;
23101;SDS011;11720;51.214;22.574;2023-04-07T01:04:12;16.33;;;9.30;;
23101;SDS011;11720;51.214;22.574;2023-04-07T01:07:04;24.50;;;8.70;;
23101;SDS011;11720;51.214;22.574;2023-04-07T01:09:40;18.53;;;9.73;;
23101;SDS011;11720;51.214;22.574;2023-04-07T01:12:17;18.23;;;8.43;;
23101;SDS011;11720;51.214;22.574;2023-04-07T01:14:50;16.70;;;8.80;;
23101;SDS011;11720;51.214;22.574;2023-04-07T01:17:18;23.20;;;9.17;;
23101;SDS011;11720;51.214;22.574;2023-04-07T01:19:51;19.37;;;8.93;;
23101;SDS011;11720;51.214;22.574;2023-04-07T01:22:31;14.87;;;7.67;;
23101;SDS011;11720;51.214;22.574;2023-04-07T01:25:22;18.80;;;10.27;;
23101;SDS011;11720;51.214;22.574;2023-04-07T01:28:03;17.80;;;9.87;;
23101;SDS011;11720;51.214;22.574;2023-04-07T01:30:37;26.27;;;8.23;;
23101;SDS011;11720;51.214;22.574;2023-04-07T01:33:05;18.27;;;8.57;;
23101;SDS011;11720;51.214;22.574;2023-04-07T01:35:34;18.57;;;7.33;;
23101;SDS011;11720;51.214;22.574;2023-04-07T01:38:01;16.83;;;8.07;;
23101;SDS011;11720;51.214;22.574;2023-04-07T01:40:27;14.57;;;8.00;;
23101;SDS011;11720;51.214;22.574;2023-04-07T01:42:54;15.97;;;8.93;;
23101;SDS011;11720;51.214;22.574;2023-04-07T01:45:21;27.67;;;9.33;;
23101;SDS011;11720;51.214;22.574;2023-04-07T01:47:48;17.90;;;8.30;;
23101;SDS011;11720;51.214;22.574;2023-04-07T01:50:14;17.47;;;8.53;;
23101;SDS011;11720;51.214;22.574;2023-04-07T01:52:40;16.47;;;7.83;;
23101;SDS011;11720;51.214;22.574;2023-04-07T01:55:07;26.67;;;9.60;;
23101;SDS011;11720;51.214;22.574;2023-04-07T01:57:34;23.60;;;10.03;;
23101;SDS011;11720;51.214;22.574;2023-04-07T01:59:59;20.13;;;9.00;;
23101;SDS011;11720;51.214;22.574;2023-04-07T02:02:25;31.23;;;9.70;;
23101;SDS011;11720;51.214;22.574;2023-04-07T02:04:56;42.80;;;11.97;;
23101;SDS011;11720;51.214;22.574;2023-04-07T02:07:30;16.87;;;8.70;;
23101;SDS011;11720;51.214;22.574;2023-04-07T02:10:18;24.23;;;9.70;;
23101;SDS011;11720;51.214;22.574;2023-04-07T02:12:46;24.97;;;9.57;;
23101;SDS011;11720;51.214;22.574;2023-04-07T02:15:13;15.80;;;9.50;;
23101;SDS011;11720;51.214;22.574;2023-04-07T02:17:41;17.87;;;8.97;;
23101;SDS011;11720;51.214;22.574;2023-04-07T02:20:10;20.17;;;9.93;;
23101;SDS011;11720;51.214;22.574;2023-04-07T02:22:37;23.60;;;9.30;;
23101;SDS011;11720;51.214;22.574;2023-04-07T02:27:52;16.37;;;7.73;;
23101;SDS011;11720;51.214;22.574;2023-04-07T02:30:20;26.83;;;10.87;;
23101;SDS011;11720;51.214;22.574;2023-04-07T02:32:46;17.67;;;9.40;;
23101;SDS011;11720;51.214;22.574;2023-04-07T02:35:13;17.53;;;10.37;;
23101;SDS011;11720;51.214;22.574;2023-04-07T02:37:40;20.50;;;8.50;;
23101;SDS011;11720;51.214;22.574;2023-04-07T02:40:09;16.33;;;8.50;;
23101;SDS011;11720;51.214;22.574;2023-04-07T02:42:35;16.07;;;9.07;;
23101;SDS011;11720;51.214;22.574;2023-04-07T02:45:01;19.47;;;8.57;;
23101;SDS011;11720;51.214;22.574;2023-04-07T02:47:28;20.47;;;9.60;;
23101;SDS011;11720;51.214;22.574;2023-04-07T02:49:54;16.37;;;8.03;;
23101;SDS011;11720;51.214;22.574;2023-04-07T02:52:21;18.23;;;9.67;;
23101;SDS011;11720;51.214;22.574;2023-04-07T02:54:47;23.43;;;9.33;;
23101;SDS011;11720;51.214;22.574;2023-04-07T02:57:13;16.67;;;8.30;;
23101;SDS011;11720;51.214;22.574;2023-04-07T02:59:39;20.80;;;9.77;;
23101;SDS011;11720;51.214;22.574;2023-04-07T03:02:05;23.63;;;8.40;;
23101;SDS011;11720;51.214;22.574;2023-04-07T03:04:31;20.67;;;9.83;;
23101;SDS011;11720;51.214;22.574;2023-04-07T03:06:58;27.43;;;11.37;;
23101;SDS011;11720;51.214;22.574;2023-04-07T03:09:24;22.00;;;11.70;;
23101;SDS011;11720;51.214;22.574;2023-04-07T03:11:50;30.97;;;10.13;;
23101;SDS011;11720;51.214;22.574;2023-04-07T03:14:16;21.57;;;9.03;;
23101;SDS011;11720;51.214;22.574;2023-04-07T03:16:42;20.83;;;8.43;;
23101;SDS011;11720;51.214;22.574;2023-04-07T03:19:08;30.67;;;11.80;;
23101;SDS011;11720;51.214;22.574;2023-04-07T03:21:35;27.03;;;10.83;;
23101;SDS011;11720;51.214;22.574;2023-04-07T03:24:02;21.23;;;10.23;;
23101;SDS011;11720;51.214;22.574;2023-04-07T03:26:28;23.50;;;10.30;;
23101;SDS011;11720;51.214;22.574;2023-04-07T03:28:54;20.10;;;9.47;;
23101;SDS011;11720;51.214;22.574;2023-04-07T03:31:20;17.27;;;8.10;;
23101;SDS011;11720;51.214;22.574;2023-04-07T03:33:46;16.70;;;9.47;;
23101;SDS011;11720;51.214;22.574;2023-04-07T03:36:13;26.17;;;10.43;;
23101;SDS011;11720;51.214;22.574;2023-04-07T03:38:39;22.67;;;9.83;;
23101;SDS011;11720;51.214;22.574;2023-04-07T03:41:05;23.53;;;10.30;;
23101;SDS011;11720;51.214;22.574;2023-04-07T03:43:31;17.90;;;8.10;;
23101;SDS011;11720;51.214;22.574;2023-04-07T03:45:57;17.30;;;7.80;;
23101;SDS011;11720;51.214;22.574;2023-04-07T03:48:23;19.07;;;9.27;;
23101;SDS011;11720;51.214;22.574;2023-04-07T03:50:49;16.97;;;7.47;;
23101;SDS011;11720;51.214;22.574;2023-04-07T03:53:15;22.47;;;8.80;;
23101;SDS011;11720;51.214;22.574;2023-04-07T03:55:41;12.60;;;7.20;;
23101;SDS011;11720;51.214;22.574;2023-04-07T03:58:08;17.23;;;7.77;;
23101;SDS011;11720;51.214;22.574;2023-04-07T04:00:33;20.33;;;8.93;;
23101;SDS011;11720;51.214;22.574;2023-04-07T04:03:00;16.33;;;9.00;;
23101;SDS011;11720;51.214;22.574;2023-04-07T04:05:26;15.37;;;8.40;;
23101;SDS011;11720;51.214;22.574;2023-04-07T04:07:51;12.77;;;7.77;;
23101;SDS011;11720;51.214;22.574;2023-04-07T04:10:20;14.67;;;8.00;;
23101;SDS011;11720;51.214;22.574;2023-04-07T04:12:46;17.80;;;8.70;;
23101;SDS011;11720;51.214;22.574;2023-04-07T04:15:12;13.57;;;6.50;;
23101;SDS011;11720;51.214;22.574;2023-04-07T04:17:38;17.67;;;6.97;;
23101;SDS011;11720;51.214;22.574;2023-04-07T04:20:05;13.30;;;7.57;;
23101;SDS011;11720;51.214;22.574;2023-04-07T04:22:32;17.23;;;7.57;;
23101;SDS011;11720;51.214;22.574;2023-04-07T04:24:58;13.10;;;7.13;;
23101;SDS011;11720;51.214;22.574;2023-04-07T04:27:24;16.63;;;7.60;;
23101;SDS011;11720;51.214;22.574;2023-04-07T04:29:51;14.90;;;7.43;;
23101;SDS011;11720;51.214;22.574;2023-04-07T04:32:25;12.60;;;8.07;;
23101;SDS011;11720;51.214;22.574;2023-04-07T04:34:53;16.30;;;7.23;;
23101;SDS011;11720;51.214;22.574;2023-04-07T04:37:20;14.80;;;7.00;;
23101;SDS011;11720;51.214;22.574;2023-04-07T04:39:46;16.07;;;8.03;;
23101;SDS011;11720;51.214;22.574;2023-04-07T04:42:12;13.23;;;7.53;;
23101;SDS011;11720;51.214;22.574;2023-04-07T04:44:38;15.87;;;7.87;;
23101;SDS011;11720;51.214;22.574;2023-04-07T04:47:04;12.17;;;6.60;;
23101;SDS011;11720;51.214;22.574;2023-04-07T04:49:30;18.50;;;8.33;;
23101;SDS011;11720;51.214;22.574;2023-04-07T04:51:56;15.23;;;8.30;;
23101;SDS011;11720;51.214;22.574;2023-04-07T04:54:25;17.27;;;7.90;;
23101;SDS011;11720;51.214;22.574;2023-04-07T04:56:50;17.27;;;7.83;;
23101;SDS011;11720;51.214;22.574;2023-04-07T04:59:16;17.70;;;6.87;;
23101;SDS011;11720;51.214;22.574;2023-04-07T05:01:42;12.73;;;7.87;;
23101;SDS011;11720;51.214;22.574;2023-04-07T05:04:08;16.17;;;7.70;;
23101;SDS011;11720;51.214;22.574;2023-04-07T05:06:35;14.83;;;7.77;;
23101;SDS011;11720;51.214;22.574;2023-04-07T05:09:01;15.37;;;7.17;;
23101;SDS011;11720;51.214;22.574;2023-04-07T05:11:27;14.83;;;7.33;;
23101;SDS011;11720;51.214;22.574;2023-04-07T05:13:53;13.23;;;7.87;;
23101;SDS011;11720;51.214;22.574;2023-04-07T05:16:18;13.83;;;6.70;;
23101;SDS011;11720;51.214;22.574;2023-04-07T05:18:44;12.20;;;6.93;;
23101;SDS011;11720;51.214;22.574;2023-04-07T05:21:10;12.57;;;8.10;;
23101;SDS011;11720;51.214;22.574;2023-04-07T05:23:36;15.37;;;9.07;;
23101;SDS011;11720;51.214;22.574;2023-04-07T05:26:02;20.40;;;9.87;;
23101;SDS011;11720;51.214;22.574;2023-04-07T05:28:27;15.83;;;9.37;;
23101;SDS011;11720;51.214;22.574;2023-04-07T05:30:53;18.20;;;8.20;;
23101;SDS011;11720;51.214;22.574;2023-04-07T05:33:19;20.37;;;8.90;;
23101;SDS011;11720;51.214;22.574;2023-04-07T05:35:45;24.40;;;9.57;;
23101;SDS011;11720;51.214;22.574;2023-04-07T05:38:12;21.57;;;11.23;;
23101;SDS011;11720;51.214;22.574;2023-04-07T05:40:38;22.73;;;11.33;;
23101;SDS011;11720;51.214;22.574;2023-04-07T05:43:05;14.03;;;8.07;;
23101;SDS011;11720;51.214;22.574;2023-04-07T05:45:30;10.50;;;6.50;;
23101;SDS011;11720;51.214;22.574;2023-04-07T05:47:56;11.30;;;5.67;;
23101;SDS011;11720;51.214;22.574;2023-04-07T05:50:22;17.20;;;7.77;;
23101;SDS011;11720;51.214;22.574;2023-04-07T05:52:47;11.80;;;5.77;;
23101;SDS011;11720;51.214;22.574;2023-04-07T05:55:13;13.70;;;6.97;;
23101;SDS011;11720;51.214;22.574;2023-04-07T05:57:41;24.63;;;15.57;;
23101;SDS011;11720;51.214;22.574;2023-04-07T06:00:07;16.37;;;8.60;;
23101;SDS011;11720;51.214;22.574;2023-04-07T06:02:33;10.47;;;5.93;;
23101;SDS011;11720;51.214;22.574;2023-04-07T06:04:59;11.23;;;5.43;;
23101;SDS011;11720;51.214;22.574;2023-04-07T06:07:25;12.60;;;6.90;;
23101;SDS011;11720;51.214;22.574;2023-04-07T06:09:51;12.27;;;7.40;;
23101;SDS011;11720;51.214;22.574;2023-04-07T06:12:17;12.40;;;7.63;;
23101;SDS011;11720;51.214;22.574;2023-04-07T06:14:45;12.47;;;7.30;;
23101;SDS011;11720;51.214;22.574;2023-04-07T06:17:15;12.00;;;6.90;;
23101;SDS011;11720;51.214;22.574;2023-04-07T06:19:41;15.87;;;7.67;;
23101;SDS011;11720;51.214;22.574;2023-04-07T06:22:07;16.77;;;7.57;;
23101;SDS011;11720;51.214;22.574;2023-04-07T06:24:32;20.90;;;7.97;;
23101;SDS011;11720;51.214;22.574;2023-04-07T06:26:59;17.90;;;8.97;;
23101;SDS011;11720;51.214;22.574;2023-04-07T06:29:27;25.00;;;10.37;;
23101;SDS011;11720;51.214;22.574;2023-04-07T06:31:52;32.00;;;13.13;;
23101;SDS011;11720;51.214;22.574;2023-04-07T06:34:36;27.57;;;10.87;;
23101;SDS011;11720;51.214;22.574;2023-04-07T06:37:07;21.63;;;9.93;;
23101;SDS011;11720;51.214;22.574;2023-04-07T06:39:39;29.80;;;16.30;;
23101;SDS011;11720;51.214;22.574;2023-04-07T06:42:05;28.57;;;14.30;;
23101;SDS011;11720;51.214;22.574;2023-04-07T06:44:31;33.87;;;15.83;;
23101;SDS011;11720;51.214;22.574;2023-04-07T06:47:00;48.70;;;18.67;;
23101;SDS011;11720;51.214;22.574;2023-04-07T06:49:28;35.57;;;15.17;;
23101;SDS011;11720;51.214;22.574;2023-04-07T06:51:54;34.47;;;13.37;;
23101;SDS011;11720;51.214;22.574;2023-04-07T06:54:20;29.70;;;13.30;;
23101;SDS011;11720;51.214;22.574;2023-04-07T06:56:46;35.00;;;13.47;;
23101;SDS011;11720;51.214;22.574;2023-04-07T06:59:12;29.60;;;12.57;;
23101;SDS011;11720;51.214;22.574;2023-04-07T07:01:38;33.10;;;12.10;;
23101;SDS011;11720;51.214;22.574;2023-04-07T07:04:03;22.90;;;11.00;;
23101;SDS011;11720;51.214;22.574;2023-04-07T07:06:30;32.33;;;10.77;;
23101;SDS011;11720;51.214;22.574;2023-04-07T07:08:57;39.10;;;16.87;;
23101;SDS011;11720;51.214;22.574;2023-04-07T07:11:24;24.33;;;12.20;;
23101;SDS011;11720;51.214;22.574;2023-04-07T07:13:51;24.53;;;9.60;;
23101;SDS011;11720;51.214;22.574;2023-04-07T07:16:17;17.07;;;7.53;;
23101;SDS011;11720;51.214;22.574;2023-04-07T07:18:43;15.47;;;6.77;;
23101;SDS011;11720;51.214;22.574;2023-04-07T07:21:09;12.97;;;6.80;;
23101;SDS011;11720;51.214;22.574;2023-04-07T07:23:35;10.27;;;5.43;;
23101;SDS011;11720;51.214;22.574;2023-04-07T07:26:01;14.37;;;5.60;;
23101;SDS011;11720;51.214;22.574;2023-04-07T07:28:27;8.73;;;4.87;;
23101;SDS011;11720;51.214;22.574;2023-04-07T07:30:54;10.77;;;4.10;;
23101;SDS011;11720;51.214;22.574;2023-04-07T07:33:20;10.10;;;4.90;;
23101;SDS011;11720;51.214;22.574;2023-04-07T07:35:47;6.57;;;3.50;;
23101;SDS011;11720;51.214;22.574;2023-04-07T07:38:13;6.37;;;3.43;;
23101;SDS011;11720;51.214;22.574;2023-04-07T07:40:47;7.93;;;4.43;;
23101;SDS011;11720;51.214;22.574;2023-04-07T07:43:12;13.87;;;4.97;;
23101;SDS011;11720;51.214;22.574;2023-04-07T07:45:38;10.63;;;4.27;;
23101;SDS011;11720;51.214;22.574;2023-04-07T07:48:04;6.57;;;4.07;;
23101;SDS011;11720;51.214;22.574;2023-04-07T07:50:30;6.53;;;3.03;;
23101;SDS011;11720;51.214;22.574;2023-04-07T07:52:56;8.07;;;3.57;;
23101;SDS011;11720;51.214;22.574;2023-04-07T07:55:22;6.27;;;2.93;;
23101;SDS011;11720;51.214;22.574;2023-04-07T07:57:48;4.60;;;3.10;;
23101;SDS011;11720;51.214;22.574;2023-04-07T08:00:14;8.40;;;2.83;;
23101;SDS011;11720;51.214;22.574;2023-04-07T08:02:40;5.07;;;2.77;;
23101;SDS011;11720;51.214;22.574;2023-04-07T08:05:06;6.10;;;3.00;;
23101;SDS011;11720;51.214;22.574;2023-04-07T08:07:32;5.97;;;3.40;;
23101;SDS011;11720;51.214;22.574;2023-04-07T08:09:58;7.77;;;3.43;;
23101;SDS011;11720;51.214;22.574;2023-04-07T08:12:24;6.23;;;3.70;;
23101;SDS011;11720;51.214;22.574;2023-04-07T08:14:50;4.47;;;3.50;;
23101;SDS011;11720;51.214;22.574;2023-04-07T08:17:17;5.60;;;3.70;;
23101;SDS011;11720;51.214;22.574;2023-04-07T08:19:46;6.00;;;3.37;;
23101;SDS011;11720;51.214;22.574;2023-04-07T08:22:12;7.17;;;3.63;;
23101;SDS011;11720;51.214;22.574;2023-04-07T08:24:38;4.77;;;3.50;;
23101;SDS011;11720;51.214;22.574;2023-04-07T08:27:11;5.83;;;3.60;;
23101;SDS011;11720;51.214;22.574;2023-04-07T08:29:37;6.20;;;3.20;;
23101;SDS011;11720;51.214;22.574;2023-04-07T08:32:03;7.80;;;3.93;;
23101;SDS011;11720;51.214;22.574;2023-04-07T08:34:29;4.90;;;2.90;;
23101;SDS011;11720;51.214;22.574;2023-04-07T08:36:55;9.10;;;3.40;;
23101;SDS011;11720;51.214;22.574;2023-04-07T08:39:21;17.53;;;7.10;;
23101;SDS011;11720;51.214;22.574;2023-04-07T08:41:49;8.83;;;4.13;;
23101;SDS011;11720;51.214;22.574;2023-04-07T08:44:15;10.50;;;3.78;;
23101;SDS011;11720;51.214;22.574;2023-04-07T08:46:42;4.17;;;2.90;;
23101;SDS011;11720;51.214;22.574;2023-04-07T08:49:09;7.53;;;3.87;;
23101;SDS011;11720;51.214;22.574;2023-04-07T08:51:37;5.30;;;2.87;;
23101;SDS011;11720;51.214;22.574;2023-04-07T08:54:14;5.53;;;2.70;;
23101;SDS011;11720;51.214;22.574;2023-04-07T08:56:42;4.95;;;2.78;;
23101;SDS011;11720;51.214;22.574;2023-04-07T08:59:09;2.90;;;2.50;;
23101;SDS011;11720;51.214;22.574;2023-04-07T09:01:36;7.40;;;3.20;;
23101;SDS011;11720;51.214;22.574;2023-04-07T09:04:03;6.88;;;3.13;;
23101;SDS011;11720;51.214;22.574;2023-04-07T09:06:30;6.30;;;3.33;;
23101;SDS011;11720;51.214;22.574;2023-04-07T09:08:56;5.22;;;3.17;;
23101;SDS011;11720;51.214;22.574;2023-04-07T09:11:23;7.30;;;3.73;;
23101;SDS011;11720;51.214;22.574;2023-04-07T09:13:50;6.00;;;3.78;;
23101;SDS011;11720;51.214;22.574;2023-04-07T09:16:15;5.90;;;2.83;;
23101;SDS011;11720;51.214;22.574;2023-04-07T09:18:41;4.68;;;2.25;;
23101;SDS011;11720;51.214;22.574;2023-04-07T09:21:08;3.45;;;2.53;;
23101;SDS011;11720;51.214;22.574;2023-04-07T09:23:44;3.42;;;2.20;;
23101;SDS011;11720;51.214;22.574;2023-04-07T09:26:19;2.53;;;1.90;;
23101;SDS011;11720;51.214;22.574;2023-04-07T09:29:07;4.28;;;2.75;;
23101;SDS011;11720;51.214;22.574;2023-04-07T09:31:43;2.97;;;2.22;;
23101;SDS011;11720;51.214;22.574;2023-04-07T09:34:24;3.40;;;2.45;;
23101;SDS011;11720;51.214;22.574;2023-04-07T09:36:54;3.95;;;2.50;;
23101;SDS011;11720;51.214;22.574;2023-04-07T09:39:21;3.70;;;2.40;;
23101;SDS011;11720;51.214;22.574;2023-04-07T09:41:47;7.30;;;2.88;;
23101;SDS011;11720;51.214;22.574;2023-04-07T09:44:13;5.25;;;3.38;;
23101;SDS011;11720;51.214;22.574;2023-04-07T09:46:49;5.90;;;3.60;;
23101;SDS011;11720;51.214;22.574;2023-04-07T09:49:15;4.60;;;2.87;;
23101;SDS011;11720;51.214;22.574;2023-04-07T09:54:33;8.50;;;3.03;;
23101;SDS011;11720;51.214;22.574;2023-04-07T09:57:01;9.93;;;4.27;;
23101;SDS011;11720;51.214;22.574;2023-04-07T09:59:31;7.45;;;3.25;;
23101;SDS011;11720;51.214;22.574;2023-04-07T10:01:58;8.70;;;3.00;;
23101;SDS011;11720;51.214;22.574;2023-04-07T10:04:25;6.80;;;2.77;;
23101;SDS011;11720;51.214;22.574;2023-04-07T10:06:55;6.20;;;2.57;;
23101;SDS011;11720;51.214;22.574;2023-04-07T10:09:22;4.77;;;2.97;;
23101;SDS011;11720;51.214;22.574;2023-04-07T10:11:49;9.50;;;3.97;;
23101;SDS011;11720;51.214;22.574;2023-04-07T10:14:17;6.93;;;3.20;;
23101;SDS011;11720;51.214;22.574;2023-04-07T10:16:43;13.70;;;5.10;;
23101;SDS011;11720;51.214;22.574;2023-04-07T10:19:13;11.93;;;5.10;;
23101;SDS011;11720;51.214;22.574;2023-04-07T10:21:40;6.33;;;3.57;;
23101;SDS011;11720;51.214;22.574;2023-04-07T10:27:15;3.47;;;2.70;;
23101;SDS011;11720;51.214;22.574;2023-04-07T10:29:44;4.83;;;3.20;;
23101;SDS011;11720;51.214;22.574;2023-04-07T10:32:16;16.10;;;5.37;;
23101;SDS011;11720;51.214;22.574;2023-04-07T10:37:16;17.57;;;7.30;;
23101;SDS011;11720;51.214;22.574;2023-04-07T10:39:45;13.33;;;6.30;;
23101;SDS011;11720;51.214;22.574;2023-04-07T10:45:05;15.87;;;5.93;;
23101;SDS011;11720;51.214;22.574;2023-04-07T10:48:07;22.67;;;6.23;;
23101;SDS011;11720;51.214;22.574;2023-04-07T10:50:24;10.70;;;5.80;;
23101;SDS011;11720;51.214;22.574;2023-04-07T10:53:06;14.33;;;6.47;;
23101;SDS011;11720;51.214;22.574;2023-04-07T11:03:41;4.63;;;3.00;;
23101;SDS011;11720;51.214;22.574;2023-04-07T11:06:17;5.57;;;3.40;;
23101;SDS011;11720;51.214;22.574;2023-04-07T11:08:43;5.20;;;3.03;;
23101;SDS011;11720;51.214;22.574;2023-04-07T11:11:11;5.77;;;3.03;;
23101;SDS011;11720;51.214;22.574;2023-04-07T11:13:41;4.80;;;2.97;;
23101;SDS011;11720;51.214;22.574;2023-04-07T11:16:08;6.07;;;2.80;;
23101;SDS011;11720;51.214;22.574;2023-04-07T11:18:35;5.10;;;2.63;;
23101;SDS011;11720;51.214;22.574;2023-04-07T11:21:01;5.60;;;3.53;;
23101;SDS011;11720;51.214;22.574;2023-04-07T11:23:27;6.80;;;3.20;;
23101;SDS011;11720;51.214;22.574;2023-04-07T11:26:00;5.55;;;3.05;;
23101;SDS011;11720;51.214;22.574;2023-04-07T11:28:26;5.03;;;2.83;;
23101;SDS011;11720;51.214;22.574;2023-04-07T11:30:53;4.90;;;2.77;;
23101;SDS011;11720;51.214;22.574;2023-04-07T11:33:21;7.70;;;3.47;;
23101;SDS011;11720;51.214;22.574;2023-04-07T11:38:22;6.97;;;3.33;;
23101;SDS011;11720;51.214;22.574;2023-04-07T11:40:49;9.03;;;2.87;;
23101;SDS011;11720;51.214;22.574;2023-04-07T11:43:25;4.83;;;2.87;;
23101;SDS011;11720;51.214;22.574;2023-04-07T11:46:05;3.33;;;2.20;;
23101;SDS011;11720;51.214;22.574;2023-04-07T11:48:35;6.93;;;3.93;;
23101;SDS011;11720;51.214;22.574;2023-04-07T11:51:02;9.63;;;3.10;;
23101;SDS011;11720;51.214;22.574;2023-04-07T11:53:35;11.35;;;3.50;;
23101;SDS011;11720;51.214;22.574;2023-04-07T11:56:09;6.80;;;2.88;;
23101;SDS011;11720;51.214;22.574;2023-04-07T11:58:45;11.00;;;4.03;;
23101;SDS011;11720;51.214;22.574;2023-04-07T12:01:20;9.97;;;3.10;;
23101;SDS011;11720;51.214;22.574;2023-04-07T12:06:29;5.23;;;2.73;;
23101;SDS011;11720;51.214;22.574;2023-04-07T12:09:02;4.13;;;3.00;;
23101;SDS011;11720;51.214;22.574;2023-04-07T12:11:30;5.30;;;2.90;;
23101;SDS011;11720;51.214;22.574;2023-04-07T12:13:57;5.57;;;2.93;;
23101;SDS011;11720;51.214;22.574;2023-04-07T12:16:23;15.53;;;3.10;;
23101;SDS011;11720;51.214;22.574;2023-04-07T12:18:49;5.90;;;3.10;;
23101;SDS011;11720;51.214;22.574;2023-04-07T12:21:15;6.00;;;2.97;;
23101;SDS011;11720;51.214;22.574;2023-04-07T12:23:43;9.43;;;4.40;;
23101;SDS011;11720;51.214;22.574;2023-04-07T12:26:11;7.73;;;3.93;;
23101;SDS011;11720;51.214;22.574;2023-04-07T12:28:37;7.00;;;2.10;;
23101;SDS011;11720;51.214;22.574;2023-04-07T12:31:03;8.00;;;3.67;;
23101;SDS011;11720;51.214;22.574;2023-04-07T12:33:29;6.87;;;2.93;;
23101;SDS011;11720;51.214;22.574;2023-04-07T12:35:58;4.00;;;2.40;;
23101;SDS011;11720;51.214;22.574;2023-04-07T12:38:23;4.90;;;2.63;;
23101;SDS011;11720;51.214;22.574;2023-04-07T12:40:52;5.40;;;3.00;;
23101;SDS011;11720;51.214;22.574;2023-04-07T12:43:18;5.45;;;2.83;;
23101;SDS011;11720;51.214;22.574;2023-04-07T12:45:44;6.07;;;2.47;;
23101;SDS011;11720;51.214;22.574;2023-04-07T12:48:11;4.85;;;2.42;;
23101;SDS011;11720;51.214;22.574;2023-04-07T12:50:38;10.75;;;4.15;;
23101;SDS011;11720;51.214;22.574;2023-04-07T12:53:04;4.60;;;2.30;;
23101;SDS011;11720;51.214;22.574;2023-04-07T12:55:30;8.57;;;4.00;;
23101;SDS011;11720;51.214;22.574;2023-04-07T12:58:00;7.22;;;3.00;;
23101;SDS011;11720;51.214;22.574;2023-04-07T13:00:25;4.63;;;2.55;;
23101;SDS011;11720;51.214;22.574;2023-04-07T13:02:51;12.10;;;4.35;;
23101;SDS011;11720;51.214;22.574;2023-04-07T13:05:17;11.47;;;3.17;;
23101;SDS011;11720;51.214;22.574;2023-04-07T13:07:43;7.82;;;3.53;;
23101;SDS011;11720;51.214;22.574;2023-04-07T13:10:09;5.95;;;3.05;;
23101;SDS011;11720;51.214;22.574;2023-04-07T13:12:35;4.60;;;3.33;;
23101;SDS011;11720;51.214;22.574;2023-04-07T13:15:01;6.43;;;3.20;;
23101;SDS011;11720;51.214;22.574;2023-04-07T13:17:27;4.40;;;2.70;;
23101;SDS011;11720;51.214;22.574;2023-04-07T13:19:53;5.57;;;2.43;;
23101;SDS011;11720;51.214;22.574;2023-04-07T13:22:19;5.73;;;2.50;;
23101;SDS011;11720;51.214;22.574;2023-04-07T13:24:44;4.17;;;2.27;;
23101;SDS011;11720;51.214;22.574;2023-04-07T13:27:10;4.43;;;2.65;;
23101;SDS011;11720;51.214;22.574;2023-04-07T13:29:36;7.77;;;3.47;;
23101;SDS011;11720;51.214;22.574;2023-04-07T13:32:05;15.00;;;4.57;;
23101;SDS011;11720;51.214;22.574;2023-04-07T13:34:37;7.72;;;3.67;;
23101;SDS011;11720;51.214;22.574;2023-04-07T13:37:03;4.22;;;2.55;;
23101;SDS011;11720;51.214;22.574;2023-04-07T13:39:30;3.67;;;2.17;;
23101;SDS011;11720;51.214;22.574;2023-04-07T13:41:56;5.72;;;2.67;;
23101;SDS011;11720;51.214;22.574;2023-04-07T13:44:26;7.35;;;3.28;;
23101;SDS011;11720;51.214;22.574;2023-04-07T13:46:53;9.52;;;2.83;;
23101;SDS011;11720;51.214;22.574;2023-04-07T13:49:22;5.22;;;2.92;;
23101;SDS011;11720;51.214;22.574;2023-04-07T13:51:50;4.10;;;2.30;;
23101;SDS011;11720;51.214;22.574;2023-04-07T13:54:16;3.22;;;2.47;;
23101;SDS011;11720;51.214;22.574;2023-04-07T13:56:42;4.90;;;2.93;;
23101;SDS011;11720;51.214;22.574;2023-04-07T13:59:14;7.97;;;2.13;;
23101;SDS011;11720;51.214;22.574;2023-04-07T14:01:40;4.37;;;2.57;;
23101;SDS011;11720;51.214;22.574;2023-04-07T14:04:06;8.90;;;4.13;;
23101;SDS011;11720;51.214;22.574;2023-04-07T14:06:32;6.83;;;2.10;;
23101;SDS011;11720;51.214;22.574;2023-04-07T14:09:00;5.23;;;3.00;;
23101;SDS011;11720;51.214;22.574;2023-04-07T14:11:26;5.13;;;2.43;;
23101;SDS011;11720;51.214;22.574;2023-04-07T14:13:52;7.93;;;3.27;;
23101;SDS011;11720;51.214;22.574;2023-04-07T14:16:19;5.23;;;2.40;;
23101;SDS011;11720;51.214;22.574;2023-04-07T14:18:45;6.20;;;2.73;;
23101;SDS011;11720;51.214;22.574;2023-04-07T14:21:11;4.47;;;2.47;;
23101;SDS011;11720;51.214;22.574;2023-04-07T14:23:36;4.63;;;2.97;;
23101;SDS011;11720;51.214;22.574;2023-04-07T14:26:02;6.23;;;2.80;;
23101;SDS011;11720;51.214;22.574;2023-04-07T14:28:29;5.33;;;3.10;;
23101;SDS011;11720;51.214;22.574;2023-04-07T14:30:55;8.33;;;4.07;;
23101;SDS011;11720;51.214;22.574;2023-04-07T14:33:21;9.43;;;3.77;;
23101;SDS011;11720;51.214;22.574;2023-04-07T14:35:47;7.67;;;3.93;;
23101;SDS011;11720;51.214;22.574;2023-04-07T14:38:13;10.30;;;4.67;;
23101;SDS011;11720;51.214;22.574;2023-04-07T14:40:39;10.07;;;4.10;;
23101;SDS011;11720;51.214;22.574;2023-04-07T14:43:05;19.90;;;7.27;;
23101;SDS011;11720;51.214;22.574;2023-04-07T14:45:32;16.90;;;7.13;;
23101;SDS011;11720;51.214;22.574;2023-04-07T14:47:58;10.47;;;5.57;;
23101;SDS011;11720;51.214;22.574;2023-04-07T14:50:24;15.33;;;5.40;;
23101;SDS011;11720;51.214;22.574;2023-04-07T14:52:50;8.97;;;4.57;;
23101;SDS011;11720;51.214;22.574;2023-04-07T14:55:16;17.23;;;6.33;;
23101;SDS011;11720;51.214;22.574;2023-04-07T14:57:42;6.47;;;4.20;;